createdAt,value
2023-02-11T00:00:17.690Z,95486.27
2023-02-11T00:01:17.499Z,95488.20
2023-02-11T00:01:51.397Z,95488.89
2023-02-11T00:02:28.077Z,95493.47
2023-02-11T00:03:01.978Z,95494.96
2023-02-11T00:03:36.221Z,95494.95
2023-02-11T00:04:10.794Z,95490.39
2023-02-11T00:04:44.069Z,95489.32
2023-02-11T00:05:17.673Z,95494.70
2023-02-11T00:06:01.672Z,95488.42
2023-02-11T00:06:35.923Z,95491.36
2023-02-11T00:07:09.126Z,95494.19
2023-02-11T00:07:42.479Z,95496.20
2023-02-11T00:08:17.207Z,95492.23
2023-02-11T00:08:50.578Z,95489.38
2023-02-11T00:09:24.064Z,95485.98
2023-02-11T00:09:57.452Z,95485.89
2023-02-11T00:10:30.707Z,95481.80
2023-02-11T00:11:05.481Z,95486.71
2023-02-11T00:11:38.734Z,95488.06
2023-02-11T00:12:12.021Z,95487.25
2023-02-11T00:12:45.278Z,95491.66
2023-02-11T00:13:18.471Z,95488.56
2023-02-11T00:13:51.820Z,95490.52
2023-02-11T00:14:25.260Z,95488.73
2023-02-11T00:14:58.637Z,95489.52
2023-02-11T00:15:32.077Z,95487.36
2023-02-11T00:16:14.262Z,95488.14
2023-02-11T00:16:47.411Z,95489.02
2023-02-11T00:17:21.025Z,95488.05
2023-02-11T00:17:54.323Z,95486.05
2023-02-11T00:18:28.130Z,95489.04
2023-02-11T00:19:03.232Z,95485.63
2023-02-11T00:19:40.103Z,95484.75
2023-02-11T00:20:13.485Z,95481.36
2023-02-11T00:20:47.005Z,95484.05
2023-02-11T00:21:22.858Z,95481.33
2023-02-11T00:21:56.140Z,95483.23
2023-02-11T00:22:29.426Z,95483.83
2023-02-11T00:23:02.608Z,95485.11
2023-02-11T00:23:36.656Z,95483.23
2023-02-11T00:24:09.952Z,95479.52
2023-02-11T00:24:43.430Z,95479.48
2023-02-11T00:25:16.701Z,95483.17
2023-02-11T00:25:50.281Z,95478.30
2023-02-11T00:26:26.884Z,95481.86
2023-02-11T00:27:00.304Z,95478.80
2023-02-11T00:27:33.543Z,95479.75
2023-02-11T00:28:07.067Z,95479.68
2023-02-11T00:28:41.362Z,95477.48
2023-02-11T00:29:15.577Z,95480.30
2023-02-11T00:29:48.854Z,95483.30
2023-02-11T00:30:22.271Z,95485.54
2023-02-11T00:30:56.800Z,95482.53
2023-02-11T00:31:30.311Z,95476.00
2023-02-11T00:32:05.481Z,95479.11
2023-02-11T00:32:38.778Z,95475.48
2023-02-11T00:33:11.979Z,95475.27
2023-02-11T00:33:45.787Z,95473.56
2023-02-11T00:34:19.137Z,95477.55
2023-02-11T00:34:53.718Z,95475.35
2023-02-11T00:35:27.067Z,95477.64
2023-02-11T00:36:07.987Z,95476.95
2023-02-11T00:36:41.293Z,95476.43
2023-02-11T00:37:14.576Z,95476.26
2023-02-11T00:37:48.295Z,95473.14
2023-02-11T00:38:21.500Z,95477.38
2023-02-11T00:38:56.808Z,95472.77
2023-02-11T00:39:30.733Z,95477.86
2023-02-11T00:40:06.833Z,95479.89
2023-02-11T00:40:40.113Z,95480.13
2023-02-11T00:41:14.287Z,95477.59
2023-02-11T00:41:47.592Z,95479.17
2023-02-11T00:42:20.829Z,95479.88
2023-02-11T00:42:54.070Z,95478.52
2023-02-11T00:43:27.456Z,95480.54
2023-02-11T00:44:01.563Z,95479.41
2023-02-11T00:44:35.040Z,95479.40
2023-02-11T00:45:10.233Z,95481.90
2023-02-11T00:45:43.451Z,95480.46
2023-02-11T00:46:17.138Z,95479.50
2023-02-11T00:46:50.755Z,95475.05
2023-02-11T00:47:26.919Z,95477.38
2023-02-11T00:48:00.392Z,95476.86
2023-02-11T00:48:35.059Z,95474.16
2023-02-11T00:49:08.407Z,95475.05
2023-02-11T00:49:41.821Z,95471.94
2023-02-11T00:50:15.568Z,95474.45
2023-02-11T00:50:48.875Z,95471.69
2023-02-11T00:51:22.274Z,95472.25
2023-02-11T00:51:55.547Z,95474.66
2023-02-11T00:52:28.746Z,95470.83
2023-02-11T00:53:02.776Z,95468.21
2023-02-11T00:53:37.148Z,95465.13
2023-02-11T00:54:10.648Z,95466.90
2023-02-11T00:54:45.350Z,95467.77
2023-02-11T00:55:18.896Z,95465.33
2023-02-11T00:55:52.410Z,95466.29
2023-02-11T00:56:25.877Z,95467.51
2023-02-11T00:56:59.388Z,95464.96
2023-02-11T00:57:32.805Z,95466.53
2023-02-11T00:58:06.394Z,95468.31
2023-02-11T00:58:39.769Z,95466.89
2023-02-11T00:59:13.023Z,95466.29
2023-02-11T00:59:46.183Z,95468.18
2023-02-11T01:00:19.504Z,95468.70
2023-02-11T01:00:54.344Z,95466.88
2023-02-11T01:01:27.802Z,95467.84
2023-02-11T01:02:01.159Z,95467.09
2023-02-11T01:02:34.683Z,95471.46
2023-02-11T01:03:08.092Z,95470.64
2023-02-11T01:03:41.829Z,95471.08
2023-02-11T01:04:15.236Z,95472.84
2023-02-11T01:04:48.606Z,95474.15
2023-02-11T01:05:22.077Z,95474.06
2023-02-11T01:05:55.963Z,95472.73
2023-02-11T01:06:29.323Z,95470.64
2023-02-11T01:07:02.545Z,95471.06
2023-02-11T01:07:36.158Z,95473.54
2023-02-11T01:08:09.480Z,95473.00
2023-02-11T01:08:43.593Z,95472.02
2023-02-11T01:09:18.444Z,95470.70
2023-02-11T01:09:54.689Z,95468.64
2023-02-11T01:10:29.485Z,95470.66
2023-02-11T01:11:05.983Z,95468.23
2023-02-11T01:11:39.412Z,95469.65
2023-02-11T01:12:13.446Z,95469.24
2023-02-11T01:12:47.358Z,95463.05
2023-02-11T01:13:20.685Z,95464.23
2023-02-11T01:13:54.135Z,95462.31
2023-02-11T01:14:28.748Z,95459.08
2023-02-11T01:15:02.201Z,95463.38
2023-02-11T01:15:36.290Z,95459.43
2023-02-11T01:16:11.098Z,95463.47
2023-02-11T01:16:44.643Z,95457.02
2023-02-11T01:17:17.984Z,95453.63
2023-02-11T01:17:51.340Z,95455.54
2023-02-11T01:18:25.217Z,95447.42
2023-02-11T01:18:59.080Z,95456.98
2023-02-11T01:19:32.448Z,95456.63
2023-02-11T01:20:08.453Z,95458.44
2023-02-11T01:20:41.789Z,95458.14
2023-02-11T01:21:15.211Z,95457.02
2023-02-11T01:21:49.876Z,95457.86
2023-02-11T01:22:23.349Z,95451.63
2023-02-11T01:22:56.595Z,95453.61
2023-02-11T01:23:29.951Z,95451.05
2023-02-11T01:24:03.749Z,95455.36
2023-02-11T01:24:37.089Z,95454.20
2023-02-11T01:25:11.216Z,95453.71
2023-02-11T01:25:44.639Z,95452.21
2023-02-11T01:26:17.838Z,95452.14
2023-02-11T01:26:51.261Z,95444.52
2023-02-11T01:27:24.515Z,95440.88
2023-02-11T01:27:57.909Z,95446.64
2023-02-11T01:28:31.889Z,95446.48
2023-02-11T01:29:06.486Z,95448.95
2023-02-11T01:29:39.756Z,95443.39
2023-02-11T01:30:14.958Z,95439.65
2023-02-11T01:30:48.589Z,95441.20
2023-02-11T01:31:21.869Z,95440.28
2023-02-11T01:31:55.261Z,95441.48
2023-02-11T01:32:28.488Z,95437.19
2023-02-11T01:33:01.818Z,95434.77
2023-02-11T01:33:36.562Z,95435.85
2023-02-11T01:34:11.891Z,95435.84
2023-02-11T01:34:45.034Z,95437.65
2023-02-11T01:35:19.520Z,95438.64
2023-02-11T01:35:53.141Z,95433.95
2023-02-11T01:36:26.660Z,95435.60
2023-02-11T01:37:00.059Z,95437.20
2023-02-11T01:37:36.346Z,95434.35
2023-02-11T01:38:19.946Z,95429.42
2023-02-11T01:38:53.304Z,95433.48
2023-02-11T01:39:27.603Z,95428.63
2023-02-11T01:40:02.697Z,95432.84
2023-02-11T01:40:36.266Z,95433.91
2023-02-11T01:41:12.985Z,95436.38
2023-02-11T01:41:46.274Z,95431.98
2023-02-11T01:42:22.272Z,95430.36
2023-02-11T01:42:55.625Z,95428.55
2023-02-11T01:43:33.820Z,95427.91
2023-02-11T01:44:33.322Z,95428.17
2023-02-11T01:45:44.704Z,95422.84
2023-02-11T01:46:37.177Z,95423.47
2023-02-11T01:47:10.649Z,95422.84
2023-02-11T01:47:43.931Z,95418.70
2023-02-11T01:48:23.166Z,95416.49
2023-02-11T01:49:17.093Z,95411.45
2023-02-11T01:49:57.950Z,95414.34
2023-02-11T01:50:31.595Z,95418.30
2023-02-11T01:51:32.789Z,95422.42
2023-02-11T01:52:12.561Z,95418.16
2023-02-11T01:52:48.032Z,95425.73
2023-02-11T01:53:40.888Z,95426.96
2023-02-11T01:54:37.091Z,95427.36
2023-02-11T01:55:32.376Z,95422.92
2023-02-11T01:56:26.067Z,95424.33
2023-02-11T01:57:19.830Z,95426.95
2023-02-11T01:57:57.374Z,95424.64
2023-02-11T01:58:33.800Z,95422.80
2023-02-11T01:59:13.536Z,95420.13
2023-02-11T01:59:55.000Z,95416.41
2023-02-11T02:00:36.758Z,95421.75
2023-02-11T02:01:13.406Z,95420.94
2023-02-11T02:01:53.446Z,95415.21
2023-02-11T02:02:45.195Z,95412.24
2023-02-11T02:03:22.906Z,95418.70
2023-02-11T02:04:02.140Z,95416.08
2023-02-11T02:04:42.565Z,95414.52
2023-02-11T02:05:24.730Z,95418.52
2023-02-11T02:06:06.771Z,95416.80
2023-02-11T02:06:59.489Z,95413.24
2023-02-11T02:07:39.242Z,95413.05
2023-02-11T02:08:29.700Z,95409.86
2023-02-11T02:09:11.616Z,95411.28
2023-02-11T02:09:53.066Z,95410.58
2023-02-11T02:10:28.506Z,95408.64
2023-02-11T02:11:02.589Z,95406.77
2023-02-11T02:11:37.505Z,95409.15
2023-02-11T02:12:10.760Z,95405.95
2023-02-11T02:12:44.183Z,95403.55
2023-02-11T02:13:17.552Z,95399.83
2023-02-11T02:13:50.818Z,95403.90
2023-02-11T02:14:26.990Z,95402.76
2023-02-11T02:15:20.704Z,95402.02
2023-02-11T02:16:07.729Z,95400.53
2023-02-11T02:16:42.747Z,95392.64
2023-02-11T02:17:42.210Z,95397.83
2023-02-11T02:18:42.694Z,95397.86
2023-02-11T02:19:46.340Z,95397.23
2023-02-11T02:20:58.378Z,95391.98
2023-02-11T02:21:49.546Z,95390.60
2023-02-11T02:22:22.707Z,95389.49
2023-02-11T02:23:15.049Z,95385.30
2023-02-11T02:24:00.361Z,95389.18
2023-02-11T02:25:11.557Z,95383.39
2023-02-11T02:26:22.584Z,95378.11
2023-02-11T02:27:11.022Z,95376.92
2023-02-11T02:27:57.066Z,95376.89
2023-02-11T02:28:38.863Z,95374.46
2023-02-11T02:29:35.335Z,95374.52
2023-02-11T02:30:23.473Z,95373.27
2023-02-11T02:31:25.803Z,95371.98
2023-02-11T02:32:41.009Z,95372.48
2023-02-11T02:33:22.479Z,95368.59
2023-02-11T02:34:02.655Z,95364.20
2023-02-11T02:34:56.452Z,95362.48
2023-02-11T02:35:35.407Z,95359.13
2023-02-11T02:36:28.610Z,95357.25
2023-02-11T02:37:31.378Z,95345.13
2023-02-11T02:38:17.913Z,95352.96
2023-02-11T02:38:57.505Z,95358.99
2023-02-11T02:39:36.509Z,95354.59
2023-02-11T02:40:17.114Z,95359.08
2023-02-11T02:40:56.295Z,95354.44
2023-02-11T02:41:33.385Z,95355.42
2023-02-11T02:42:07.450Z,95353.19
2023-02-11T02:42:42.405Z,95344.23
2023-02-11T02:43:17.202Z,95352.70
2023-02-11T02:43:52.125Z,95343.27
2023-02-11T02:44:26.197Z,95351.98
2023-02-11T02:44:59.611Z,95355.10
2023-02-11T02:45:33.698Z,95352.17
2023-02-11T02:46:18.355Z,95354.98
2023-02-11T02:46:52.006Z,95350.29
2023-02-11T02:47:25.287Z,95351.41
2023-02-11T02:47:58.621Z,95350.96
2023-02-11T02:48:35.029Z,95355.73
2023-02-11T02:50:45.086Z,95353.73
2023-02-11T02:51:33.314Z,95351.72
2023-02-11T02:52:19.612Z,95352.83
2023-02-11T02:53:42.692Z,95356.69
2023-02-11T02:54:38.328Z,95351.36
2023-02-11T02:55:34.527Z,95350.68
2023-02-11T02:56:31.202Z,95347.12
2023-02-11T02:58:00.327Z,95349.16
2023-02-11T02:58:49.358Z,95353.91
2023-02-11T02:59:34.889Z,95348.89
2023-02-11T03:00:30.235Z,95350.96
2023-02-11T03:01:42.511Z,95347.83
2023-02-11T03:02:27.382Z,95340.41
2023-02-11T03:03:28.013Z,95339.05
2023-02-11T03:04:53.083Z,95320.59
2023-02-11T03:06:02.657Z,95323.27
2023-02-11T03:06:56.462Z,95322.35
2023-02-11T03:07:40.104Z,95321.13
2023-02-11T03:08:30.852Z,95319.13
2023-02-11T03:09:16.170Z,95316.34
2023-02-11T03:09:58.662Z,95323.63
2023-02-11T03:10:37.914Z,95319.32
2023-02-11T03:11:14.971Z,95324.89
2023-02-11T03:11:48.828Z,95323.45
2023-02-11T03:12:23.756Z,95326.56
2023-02-11T03:12:58.327Z,95338.90
2023-02-11T03:13:35.598Z,95331.11
2023-02-11T03:14:13.726Z,95337.38
2023-02-11T03:14:50.487Z,95334.48
2023-02-11T03:15:27.669Z,95332.89
2023-02-11T03:16:11.751Z,95333.29
2023-02-11T03:16:46.636Z,95334.48
2023-02-11T03:17:21.127Z,95340.40
2023-02-11T03:17:59.066Z,95346.10
2023-02-11T03:18:36.226Z,95343.74
2023-02-11T03:19:37.829Z,95347.94
2023-02-11T03:20:14.806Z,95340.13
2023-02-11T03:20:52.124Z,95338.23
2023-02-11T03:21:26.340Z,95333.70
2023-02-11T03:22:07.700Z,95329.42
2023-02-11T03:22:53.108Z,95332.05
2023-02-11T03:23:41.381Z,95330.96
2023-02-11T03:24:37.071Z,95334.50
2023-02-11T03:25:10.724Z,95321.01
2023-02-11T03:25:53.549Z,95327.44
2023-02-11T03:26:34.426Z,95326.52
2023-02-11T03:27:47.760Z,95321.53
2023-02-11T03:28:35.950Z,95307.92
2023-02-11T03:29:55.754Z,95320.23
2023-02-11T03:30:39.232Z,95317.70
2023-02-11T03:31:57.703Z,95314.79
2023-02-11T03:32:37.448Z,95313.65
2023-02-11T03:33:27.670Z,95313.86
2023-02-11T03:34:41.453Z,95309.41
2023-02-11T03:35:18.418Z,95310.52
2023-02-11T03:35:57.502Z,95308.52
2023-02-11T03:36:51.284Z,95315.35
2023-02-11T03:37:32.945Z,95317.71
2023-02-11T03:38:34.433Z,95316.42
2023-02-11T03:39:11.274Z,95312.21
2023-02-11T03:40:03.621Z,95319.94
2023-02-11T03:40:39.755Z,95313.08
2023-02-11T03:41:16.526Z,95315.83
2023-02-11T03:41:51.852Z,95317.06
2023-02-11T03:42:30.413Z,95317.84
2023-02-11T03:43:10.504Z,95323.24
2023-02-11T03:43:51.116Z,95321.41
2023-02-11T03:44:30.987Z,95322.23
2023-02-11T03:45:09.267Z,95315.52
2023-02-11T03:45:44.710Z,95311.92
2023-02-11T03:46:21.872Z,95319.52
2023-02-11T03:46:56.219Z,95318.48
2023-02-11T03:47:32.432Z,95316.29
2023-02-11T03:48:14.934Z,95319.30
2023-02-11T03:48:56.758Z,95324.59
2023-02-11T03:49:32.613Z,95322.34
2023-02-11T03:50:10.134Z,95324.91
2023-02-11T03:50:46.555Z,95325.01
2023-02-11T03:51:23.112Z,95325.47
2023-02-11T03:51:58.658Z,95320.81
2023-02-11T03:52:34.206Z,95327.78
2023-02-11T03:53:10.816Z,95323.65
2023-02-11T03:53:46.902Z,95326.31
2023-02-11T03:54:31.092Z,95324.88
2023-02-11T03:55:11.360Z,95309.17
2023-02-11T03:55:47.605Z,95317.88
2023-02-11T03:56:27.220Z,95317.92
2023-02-11T03:57:02.636Z,95323.58
2023-02-11T03:57:36.597Z,95326.64
2023-02-11T03:58:10.375Z,95325.74
2023-02-11T03:58:46.619Z,95330.90
2023-02-11T03:59:20.115Z,95333.75
2023-02-11T03:59:58.747Z,95339.06
2023-02-11T04:00:35.170Z,95341.50
2023-02-11T04:01:10.032Z,95341.23
2023-02-11T04:01:43.735Z,95349.30
2023-02-11T04:02:17.217Z,95350.83
2023-02-11T04:02:50.589Z,95354.30
2023-02-11T04:03:24.356Z,95353.48
2023-02-11T04:03:57.790Z,95352.55
2023-02-11T04:04:31.158Z,95354.08
2023-02-11T04:05:06.943Z,95355.42
2023-02-11T04:05:40.393Z,95352.78
2023-02-11T04:06:13.922Z,95356.64
2023-02-11T04:06:47.502Z,95354.44
2023-02-11T04:07:21.200Z,95357.18
2023-02-11T04:07:54.478Z,95353.30
2023-02-11T04:08:27.871Z,95353.24
2023-02-11T04:09:01.392Z,95351.54
2023-02-11T04:09:37.211Z,95343.61
2023-02-11T04:10:12.485Z,95344.76
2023-02-11T04:10:45.824Z,95342.41
2023-02-11T04:11:19.252Z,95338.05
2023-02-11T04:11:52.570Z,95335.59
2023-02-11T04:12:26.823Z,95343.13
2023-02-11T04:13:00.252Z,95337.66
2023-02-11T04:13:34.238Z,95337.74
2023-02-11T04:14:07.795Z,95343.11
2023-02-11T04:14:41.363Z,95344.04
2023-02-11T04:15:14.841Z,95344.30
2023-02-11T04:15:49.143Z,95341.64
2023-02-11T04:16:23.041Z,95339.34
2023-02-11T04:16:56.837Z,95343.20
2023-02-11T04:17:30.805Z,95342.70
2023-02-11T04:18:04.793Z,95338.92
2023-02-11T04:18:38.582Z,95344.52
2023-02-11T04:19:12.068Z,95340.23
2023-02-11T04:19:45.686Z,95342.21
2023-02-11T04:20:19.590Z,95343.01
2023-02-11T04:20:52.958Z,95342.42
2023-02-11T04:21:26.538Z,95343.92
2023-02-11T04:22:00.707Z,95340.53
2023-02-11T04:22:34.474Z,95338.77
2023-02-11T04:23:07.924Z,95347.50
2023-02-11T04:23:41.500Z,95344.27
2023-02-11T04:24:14.995Z,95343.41
2023-02-11T04:24:48.438Z,95345.59
2023-02-11T04:25:21.962Z,95341.75
2023-02-11T04:25:55.525Z,95338.42
2023-02-11T04:26:28.969Z,95337.77
2023-02-11T04:27:02.700Z,95332.97
2023-02-11T04:27:37.176Z,95337.41
2023-02-11T04:28:10.680Z,95331.88
2023-02-11T04:28:44.012Z,95336.46
2023-02-11T04:29:17.527Z,95335.43
2023-02-11T04:29:51.295Z,95337.27
2023-02-11T04:30:24.901Z,95334.69
2023-02-11T04:31:04.894Z,95331.77
2023-02-11T04:31:41.070Z,95330.90
2023-02-11T04:32:14.648Z,95334.70
2023-02-11T04:32:48.408Z,95332.52
2023-02-11T04:33:22.317Z,95330.21
2023-02-11T04:33:56.792Z,95330.73
2023-02-11T04:34:30.409Z,95329.34
2023-02-11T04:35:04.397Z,95329.63
2023-02-11T04:35:37.939Z,95324.23
2023-02-11T04:36:11.563Z,95331.48
2023-02-11T04:36:45.152Z,95321.95
2023-02-11T04:37:18.554Z,95330.02
2023-02-11T04:37:52.006Z,95336.20
2023-02-11T04:38:26.052Z,95335.52
2023-02-11T04:38:59.479Z,95334.35
2023-02-11T04:39:33.084Z,95339.11
2023-02-11T04:40:07.160Z,95340.85
2023-02-11T04:40:41.443Z,95339.66
2023-02-11T04:41:14.906Z,95343.92
2023-02-11T04:41:48.362Z,95342.42
2023-02-11T04:42:21.782Z,95345.61
2023-02-11T04:42:55.121Z,95349.39
2023-02-11T04:43:29.165Z,95344.91
2023-02-11T04:44:02.706Z,95344.20
2023-02-11T04:44:36.217Z,95341.36
2023-02-11T04:45:09.915Z,95343.41
2023-02-11T04:45:43.324Z,95349.05
2023-02-11T04:46:16.824Z,95349.85
2023-02-11T04:46:50.361Z,95347.95
2023-02-11T04:47:23.813Z,95345.60
2023-02-11T04:47:57.297Z,95351.29
2023-02-11T04:48:30.797Z,95354.88
2023-02-11T04:49:04.360Z,95354.74
2023-02-11T04:49:38.086Z,95350.20
2023-02-11T04:50:11.646Z,95353.83
2023-02-11T04:50:45.014Z,95349.90
2023-02-11T04:51:18.421Z,95348.77
2023-02-11T04:51:51.913Z,95338.84
2023-02-11T04:52:25.458Z,95345.56
2023-02-11T04:52:58.922Z,95342.13
2023-02-11T04:53:32.525Z,95345.88
2023-02-11T04:54:06.161Z,95347.85
2023-02-11T04:54:39.922Z,95343.65
2023-02-11T04:55:13.761Z,95345.16
2023-02-11T04:55:51.003Z,95342.30
2023-02-11T04:56:24.833Z,95346.23
2023-02-11T04:56:58.422Z,95344.92
2023-02-11T04:57:31.828Z,95337.39
2023-02-11T04:58:05.370Z,95338.95
2023-02-11T04:58:38.811Z,95338.34
2023-02-11T04:59:13.527Z,95340.26
2023-02-11T04:59:46.975Z,95338.17
2023-02-11T05:00:20.882Z,95333.14
2023-02-11T05:00:55.181Z,95325.39
2023-02-11T05:01:28.804Z,95320.17
2023-02-11T05:02:02.481Z,95322.98
2023-02-11T05:02:36.343Z,95319.22
2023-02-11T05:03:10.406Z,95320.23
2023-02-11T05:03:44.137Z,95317.84
2023-02-11T05:04:17.708Z,95322.22
2023-02-11T05:04:51.076Z,95324.48
2023-02-11T05:05:25.051Z,95323.95
2023-02-11T05:05:58.657Z,95323.80
2023-02-11T05:06:32.088Z,95318.21
2023-02-11T05:07:05.575Z,95315.59
2023-02-11T05:07:39.254Z,95311.23
2023-02-11T05:08:12.854Z,95301.34
2023-02-11T05:08:46.384Z,95305.98
2023-02-11T05:09:19.965Z,95298.05
2023-02-11T05:09:53.466Z,95301.46
2023-02-11T05:10:27.440Z,95296.34
2023-02-11T05:11:02.553Z,95296.97
2023-02-11T05:11:36.975Z,95294.92
2023-02-11T05:12:10.599Z,95299.48
2023-02-11T05:12:44.008Z,95306.39
2023-02-11T05:13:17.557Z,95309.52
2023-02-11T05:13:51.436Z,95317.30
2023-02-11T05:14:24.849Z,95313.53
2023-02-11T05:14:58.323Z,95311.69
2023-02-11T05:15:31.769Z,95310.33
2023-02-11T05:16:05.629Z,95310.34
2023-02-11T05:16:39.192Z,95309.20
2023-02-11T05:17:12.708Z,95311.19
2023-02-11T05:17:46.419Z,95308.89
2023-02-11T05:18:19.841Z,95311.13
2023-02-11T05:18:55.746Z,95309.83
2023-02-11T05:19:29.630Z,95308.02
2023-02-11T05:20:03.394Z,95308.67
2023-02-11T05:20:39.616Z,95298.30
2023-02-11T05:21:17.293Z,95303.33
2023-02-11T05:22:02.135Z,95308.60
2023-02-11T05:22:36.434Z,95313.39
2023-02-11T05:23:10.566Z,95314.27
2023-02-11T05:23:44.842Z,95317.80
2023-02-11T05:24:18.308Z,95321.33
2023-02-11T05:24:51.786Z,95323.10
2023-02-11T05:25:25.078Z,95329.20
2023-02-11T05:25:58.411Z,95330.29
2023-02-11T05:26:32.807Z,95328.93
2023-02-11T05:27:06.310Z,95325.90
2023-02-11T05:27:39.739Z,95327.25
2023-02-11T05:28:13.202Z,95332.40
2023-02-11T05:28:46.903Z,95333.60
2023-02-11T05:29:20.552Z,95329.30
2023-02-11T05:29:53.996Z,95333.30
2023-02-11T05:30:27.662Z,95332.25
2023-02-11T05:31:01.997Z,95334.33
2023-02-11T05:31:35.528Z,95334.70
2023-02-11T05:32:09.307Z,95330.56
2023-02-11T05:32:42.745Z,95328.23
2023-02-11T05:33:16.145Z,95329.94
2023-02-11T05:33:49.741Z,95326.69
2023-02-11T05:34:23.518Z,95322.56
2023-02-11T05:34:57.910Z,95316.98
2023-02-11T05:35:31.694Z,95318.66
2023-02-11T05:36:08.870Z,95312.38
2023-02-11T05:36:42.279Z,95309.91
2023-02-11T05:37:17.683Z,95306.86
2023-02-11T05:37:51.133Z,95306.64
2023-02-11T05:38:24.578Z,95305.71
2023-02-11T05:38:58.199Z,95310.67
2023-02-11T05:39:31.635Z,95309.23
2023-02-11T05:40:05.880Z,95304.39
2023-02-11T05:40:39.500Z,95307.86
2023-02-11T05:41:13.482Z,95308.90
2023-02-11T05:41:47.104Z,95305.27
2023-02-11T05:42:20.576Z,95305.73
2023-02-11T05:42:54.023Z,95304.60
2023-02-11T05:43:27.952Z,95303.41
2023-02-11T05:44:01.488Z,95303.26
2023-02-11T05:44:35.450Z,95303.04
2023-02-11T05:45:09.520Z,95305.17
2023-02-11T05:45:43.089Z,95301.11
2023-02-11T05:46:17.109Z,95301.11
2023-02-11T05:46:50.568Z,95301.69
2023-02-11T05:47:24.633Z,95305.38
2023-02-11T05:47:58.383Z,95303.21
2023-02-11T05:48:32.543Z,95301.52
2023-02-11T05:49:06.050Z,95307.13
2023-02-11T05:49:39.536Z,95302.11
2023-02-11T05:50:13.004Z,95308.14
2023-02-11T05:50:46.429Z,95304.36
2023-02-11T05:51:20.170Z,95311.16
2023-02-11T05:51:53.607Z,95313.00
2023-02-11T05:52:27.076Z,95308.61
2023-02-11T05:53:00.763Z,95310.55
2023-02-11T05:53:34.828Z,95310.72
2023-02-11T05:54:08.376Z,95309.20
2023-02-11T05:54:41.823Z,95308.00
2023-02-11T05:55:15.487Z,95312.25
2023-02-11T05:55:49.203Z,95307.27
2023-02-11T05:56:22.750Z,95302.61
2023-02-11T05:56:56.211Z,95307.98
2023-02-11T05:57:29.658Z,95306.54
2023-02-11T05:58:03.332Z,95302.77
2023-02-11T05:58:36.876Z,95299.23
2023-02-11T05:59:13.692Z,95302.72
2023-02-11T05:59:47.150Z,95301.42
2023-02-11T06:00:20.849Z,95302.17
2023-02-11T06:00:54.641Z,95298.59
2023-02-11T06:01:28.244Z,95297.66
2023-02-11T06:02:02.388Z,95300.23
2023-02-11T06:02:36.173Z,95294.60
2023-02-11T06:03:10.063Z,95298.88
2023-02-11T06:03:43.731Z,95294.41
2023-02-11T06:04:17.189Z,95291.25
2023-02-11T06:04:50.681Z,95293.78
2023-02-11T06:05:26.220Z,95297.65
2023-02-11T06:05:59.773Z,95290.52
2023-02-11T06:06:33.328Z,95292.96
2023-02-11T06:07:06.761Z,95291.36
2023-02-11T06:07:40.140Z,95295.21
2023-02-11T06:08:13.702Z,95286.98
2023-02-11T06:08:47.172Z,95287.01
2023-02-11T06:09:20.700Z,95284.73
2023-02-11T06:09:54.251Z,95286.98
2023-02-11T06:10:27.774Z,95279.80
2023-02-11T06:11:01.242Z,95285.19
2023-02-11T06:11:34.922Z,95278.81
2023-02-11T06:12:08.364Z,95282.69
2023-02-11T06:12:41.840Z,95279.52
2023-02-11T06:13:15.406Z,95282.10
2023-02-11T06:13:48.889Z,95282.64
2023-02-11T06:14:22.385Z,95277.65
2023-02-11T06:14:58.474Z,95282.54
2023-02-11T06:15:31.952Z,95283.98
2023-02-11T06:16:05.825Z,95282.10
2023-02-11T06:16:39.288Z,95280.50
2023-02-11T06:17:15.543Z,95275.19
2023-02-11T06:17:49.213Z,95281.13
2023-02-11T06:18:22.545Z,95278.92
2023-02-11T06:18:56.032Z,95275.23
2023-02-11T06:19:29.498Z,95277.36
2023-02-11T06:20:05.075Z,95284.07
2023-02-11T06:20:41.094Z,95282.98
2023-02-11T06:21:14.611Z,95277.80
2023-02-11T06:21:48.084Z,95278.08
2023-02-11T06:22:21.462Z,95273.14
2023-02-11T06:22:55.388Z,95276.25
2023-02-11T06:23:30.450Z,95279.97
2023-02-11T06:24:04.585Z,95272.17
2023-02-11T06:24:59.978Z,95273.23
2023-02-11T06:25:31.366Z,95274.34
2023-02-11T06:26:07.252Z,95276.16
2023-02-11T06:26:40.810Z,95274.17
2023-02-11T06:27:14.267Z,95269.64
2023-02-11T06:27:47.667Z,95274.29
2023-02-11T06:28:21.101Z,95268.55
2023-02-11T06:28:54.628Z,95271.73
2023-02-11T06:29:28.245Z,95271.96
2023-02-11T06:30:01.715Z,95276.60
2023-02-11T06:30:37.710Z,95268.89
2023-02-11T06:31:12.036Z,95280.08
2023-02-11T06:31:45.660Z,95279.27
2023-02-11T06:32:39.508Z,95276.39
2023-02-11T06:33:13.391Z,95279.15
2023-02-11T06:33:46.852Z,95278.70
2023-02-11T06:34:20.282Z,95280.54
2023-02-11T06:34:53.683Z,95283.56
2023-02-11T06:35:27.253Z,95282.92
2023-02-11T06:36:01.356Z,95275.48
2023-02-11T06:36:35.587Z,95281.52
2023-02-11T06:37:08.992Z,95280.90
2023-02-11T06:37:43.035Z,95285.63
2023-02-11T06:38:16.658Z,95287.48
2023-02-11T06:38:50.547Z,95286.88
2023-02-11T06:39:24.065Z,95283.70
2023-02-11T06:39:57.749Z,95286.91
2023-02-11T06:40:31.200Z,95290.61
2023-02-11T06:41:04.890Z,95291.70
2023-02-11T06:41:38.372Z,95283.55
2023-02-11T06:42:11.941Z,95293.94
2023-02-11T06:42:45.574Z,95297.29
2023-02-11T06:43:19.002Z,95296.00
2023-02-11T06:43:53.489Z,95297.90
2023-02-11T06:44:27.077Z,95294.33
2023-02-11T06:45:00.481Z,95299.95
2023-02-11T06:45:34.078Z,95296.25
2023-02-11T06:46:08.710Z,95295.89
2023-02-11T06:46:42.172Z,95298.04
2023-02-11T06:47:15.849Z,95296.23
2023-02-11T06:47:52.889Z,95302.43
2023-02-11T06:48:26.484Z,95297.71
2023-02-11T06:48:59.917Z,95301.02
2023-02-11T06:49:33.444Z,95312.83
2023-02-11T06:50:08.685Z,95307.20
2023-02-11T06:50:42.055Z,95301.80
2023-02-11T06:51:16.011Z,95309.58
2023-02-11T06:51:49.426Z,95306.64
2023-02-11T06:52:23.116Z,95308.05
2023-02-11T06:52:56.681Z,95306.05
2023-02-11T06:53:30.086Z,95309.52
2023-02-11T06:54:06.481Z,95312.73
2023-02-11T06:54:39.931Z,95317.27
2023-02-11T06:55:13.747Z,95315.47
2023-02-11T06:55:47.171Z,95314.73
2023-02-11T06:56:24.743Z,95315.45
2023-02-11T06:56:58.223Z,95320.90
2023-02-11T06:57:32.610Z,95317.78
2023-02-11T06:58:06.150Z,95320.79
2023-02-11T06:58:40.099Z,95322.92
2023-02-11T06:59:18.854Z,95311.13
2023-02-11T06:59:52.335Z,95306.59
2023-02-11T07:00:26.836Z,95292.66
2023-02-11T07:01:00.399Z,95287.42
2023-02-11T07:01:33.849Z,95288.90
2023-02-11T07:02:09.257Z,95288.44
2023-02-11T07:02:42.728Z,95285.85
2023-02-11T07:03:16.204Z,95290.95
2023-02-11T07:03:50.708Z,95298.98
2023-02-11T07:04:24.083Z,95294.23
2023-02-11T07:04:57.576Z,95295.74
2023-02-11T07:05:31.092Z,95297.73
2023-02-11T07:06:05.890Z,95297.14
2023-02-11T07:06:42.864Z,95300.61
2023-02-11T07:07:19.978Z,95309.07
2023-02-11T07:07:53.765Z,95281.84
2023-02-11T07:08:27.596Z,95309.27
2023-02-11T07:09:01.171Z,95307.41
2023-02-11T07:09:34.908Z,95309.52
2023-02-11T07:10:08.698Z,95311.33
2023-02-11T07:10:42.310Z,95312.92
2023-02-11T07:11:21.638Z,95308.80
2023-02-11T07:11:55.085Z,95306.77
2023-02-11T07:12:28.450Z,95313.55
2023-02-11T07:13:02.367Z,95314.98
2023-02-11T07:13:36.265Z,95317.83
2023-02-11T07:14:10.826Z,95313.30
2023-02-11T07:14:44.513Z,95315.91